Time;durP1;ratioP1;P1;durP2;ratioP2;P2;SDS_P1;SDS_P2;PMS_P1;PMS_P2;Temp;Humidity;BMP_temperature;BMP_pressure;BME280_temperature;BME280_humidity;BME280_pressure;Samples;Min_cycle;Max_cycle;Signal;HPM_P1;HPM_P2
2023/10/05 00:00:39;;;;;;;13.82;5.85;;;;;;;;;;2069583;28;20026;-71
2023/10/05 00:03:21;;;;;;;13.90;6.97;;;;;;;;;;2074053;28;20034;-71
2023/10/05 00:04:42;;;;;;;12.93;6.45;;;;;;;;;;2072439;28;20026;-70
2023/10/05 00:06:10;;;;;;;10.40;5.53;;;;;;;;;;2072745;28;20084;-70
2023/10/05 00:07:32;;;;;;;16.38;6.00;;;;;;;;;;2074407;28;20092;-71
2023/10/05 00:08:54;;;;;;;14.68;5.22;;;;;;;;;;2072898;28;20434;-71
2023/10/05 00:10:15;;;;;;;11.25;7.22;;;;;;;;;;2078621;28;20041;-70
2023/10/05 00:11:36;;;;;;;13.32;6.88;;;;;;;;;;2072816;28;20114;-71
2023/10/05 00:13:04;;;;;;;8.45;5.53;;;;;;;;;;2077080;28;20026;-70
2023/10/05 00:14:25;;;;;;;12.93;5.57;;;;;;;;;;2065083;28;20035;-71
2023/10/05 00:15:46;;;;;;;13.80;5.30;;;;;;;;;;2071138;28;20117;-70
2023/10/05 00:17:08;;;;;;;10.73;5.72;;;;;;;;;;2073095;28;20060;-71
2023/10/05 00:18:29;;;;;;;17.38;5.38;;;;;;;;;;2064147;28;20042;-71
2023/10/05 00:19:50;;;;;;;14.27;6.35;;;;;;;;;;2069713;28;20465;-71
2023/10/05 00:21:11;;;;;;;12.90;5.72;;;;;;;;;;2080175;28;20030;-71
2023/10/05 00:22:32;;;;;;;18.63;7.45;;;;;;;;;;2076788;28;20030;-71
2023/10/05 00:23:54;;;;;;;13.95;6.35;;;;;;;;;;2079798;28;20041;-70
2023/10/05 00:25:17;;;;;;;9.00;5.78;;;;;;;;;;2071441;28;20034;-71
2023/10/05 00:26:39;;;;;;;15.90;5.55;;;;;;;;;;2088101;28;20028;-71
2023/10/05 00:28:07;;;;;;;12.90;6.05;;;;;;;;;;2073754;28;20052;-71
2023/10/05 00:29:29;;;;;;;15.95;8.10;;;;;;;;;;2076055;28;20045;-71
2023/10/05 00:30:52;;;;;;;17.02;7.70;;;;;;;;;;2081302;28;20519;-71
2023/10/05 00:32:18;;;;;;;18.75;7.10;;;;;;;;;;2084623;28;20033;-71
2023/10/05 00:33:39;;;;;;;13.57;6.32;;;;;;;;;;2084852;28;20111;-71
2023/10/05 00:36:51;;;;;;;10.82;5.60;;;;;;;;;;2079406;28;20098;-71
2023/10/05 00:38:16;;;;;;;16.45;6.97;;;;;;;;;;2082329;28;20091;-71
2023/10/05 00:39:37;;;;;;;12.15;7.03;;;;;;;;;;2082000;28;20025;-71
2023/10/05 00:41:04;;;;;;;10.43;6.30;;;;;;;;;;2085966;28;20037;-71
2023/10/05 00:42:25;;;;;;;14.07;7.55;;;;;;;;;;2061339;28;20548;-71
2023/10/05 00:43:46;;;;;;;14.40;6.85;;;;;;;;;;2078802;28;20033;-71
2023/10/05 00:45:11;;;;;;;13.77;6.65;;;;;;;;;;2076358;28;20029;-71
2023/10/05 00:46:33;;;;;;;21.92;7.55;;;;;;;;;;2077453;28;20025;-72
2023/10/05 00:48:01;;;;;;;14.18;6.30;;;;;;;;;;2080675;28;20589;-70
2023/10/05 00:49:27;;;;;;;13.30;6.47;;;;;;;;;;2080403;28;20041;-71
2023/10/05 00:50:51;;;;;;;16.83;6.30;;;;;;;;;;2091929;28;20037;-71
2023/10/05 00:52:15;;;;;;;16.65;6.28;;;;;;;;;;2082508;28;20488;-70
2023/10/05 00:53:36;;;;;;;10.00;6.38;;;;;;;;;;2081368;28;20103;-71
2023/10/05 00:55:06;;;;;;;10.25;5.53;;;;;;;;;;2089511;28;20127;-71
2023/10/05 00:56:33;;;;;;;10.48;5.45;;;;;;;;;;2088452;28;20496;-74
2023/10/05 00:57:54;;;;;;;18.30;7.45;;;;;;;;;;2086846;28;20041;-75
2023/10/05 00:59:16;;;;;;;15.27;5.90;;;;;;;;;;2082664;28;20025;-75
2023/10/05 01:00:50;;;;;;;10.73;5.60;;;;;;;;;;2085017;28;20574;-75
2023/10/05 01:02:20;;;;;;;11.57;5.88;;;;;;;;;;2083177;28;20017;-74
2023/10/05 01:04:00;;;;;;;12.70;6.45;;;;;;;;;;2081332;28;20110;-73
2023/10/05 01:05:34;;;;;;;11.32;6.45;;;;;;;;;;2078663;28;20389;-74
2023/10/05 01:06:56;;;;;;;11.65;5.80;;;;;;;;;;2080716;28;20030;-75
2023/10/05 01:08:23;;;;;;;15.45;6.18;;;;;;;;;;2081683;28;20032;-74
2023/10/05 01:11:15;;;;;;;15.65;6.85;;;;;;;;;;2085596;28;20429;-74
2023/10/05 01:12:41;;;;;;;13.38;5.70;;;;;;;;;;2079452;28;20026;-74
2023/10/05 01:14:02;;;;;;;11.25;5.68;;;;;;;;;;2072344;28;20054;-74
2023/10/05 01:15:30;;;;;;;12.67;6.07;;;;;;;;;;2071841;28;20382;-73
2023/10/05 01:16:54;;;;;;;18.40;7.35;;;;;;;;;;2070216;28;20451;-74
2023/10/05 01:18:15;;;;;;;10.52;5.70;;;;;;;;;;2072675;28;20030;-75
2023/10/05 01:19:38;;;;;;;10.20;5.65;;;;;;;;;;2072409;28;20054;-74
2023/10/05 01:21:02;;;;;;;16.67;6.63;;;;;;;;;;2075391;28;20026;-74
2023/10/05 01:22:24;;;;;;;17.63;6.15;;;;;;;;;;2072204;28;20091;-74
2023/10/05 01:23:48;;;;;;;14.10;6.82;;;;;;;;;;2070701;28;20034;-74
2023/10/05 01:25:13;;;;;;;11.23;5.32;;;;;;;;;;2071562;28;20037;-75
2023/10/05 01:26:37;;;;;;;16.75;7.05;;;;;;;;;;2074039;28;20033;-74
2023/10/05 01:27:58;;;;;;;16.65;6.85;;;;;;;;;;2072718;28;20037;-74
2023/10/05 01:29:19;;;;;;;13.85;6.00;;;;;;;;;;2071487;28;20030;-74
2023/10/05 01:30:40;;;;;;;15.00;7.20;;;;;;;;;;2061721;28;20038;-74
2023/10/05 01:32:02;;;;;;;17.10;8.05;;;;;;;;;;2071102;28;20741;-74
2023/10/05 01:33:25;;;;;;;13.50;7.72;;;;;;;;;;2072473;28;20038;-72
2023/10/05 01:34:50;;;;;;;13.52;6.82;;;;;;;;;;2072329;28;20595;-75
2023/10/05 01:36:11;;;;;;;20.60;8.07;;;;;;;;;;2072114;28;20037;-74
2023/10/05 01:37:33;;;;;;;13.57;7.05;;;;;;;;;;2075085;28;20493;-74
2023/10/05 01:39:00;;;;;;;14.18;6.72;;;;;;;;;;2073915;28;20049;-74
2023/10/05 01:40:25;;;;;;;18.10;7.60;;;;;;;;;;2081519;28;20033;-75
2023/10/05 01:41:48;;;;;;;13.73;7.20;;;;;;;;;;2075112;28;20026;-75
2023/10/05 01:43:09;;;;;;;14.13;6.22;;;;;;;;;;2073697;28;20080;-75
2023/10/05 01:44:30;;;;;;;17.02;7.13;;;;;;;;;;2076250;28;20650;-75
2023/10/05 01:45:51;;;;;;;11.80;6.55;;;;;;;;;;2069940;28;20037;-75
2023/10/05 01:47:15;;;;;;;10.80;5.78;;;;;;;;;;2072409;28;20460;-74
2023/10/05 01:48:37;;;;;;;18.30;7.55;;;;;;;;;;2072883;28;20140;-73
2023/10/05 01:49:57;;;;;;;20.45;6.78;;;;;;;;;;2071901;28;20520;-74
2023/10/05 01:51:25;;;;;;;13.65;6.50;;;;;;;;;;2070800;28;20103;-74
2023/10/05 01:52:51;;;;;;;13.13;6.72;;;;;;;;;;2076122;28;20306;-75
2023/10/05 01:54:12;;;;;;;16.42;6.22;;;;;;;;;;2081669;28;20095;-75
2023/10/05 01:55:36;;;;;;;12.90;6.15;;;;;;;;;;2074797;28;20038;-73
2023/10/05 01:57:08;;;;;;;11.45;6.38;;;;;;;;;;2071793;28;20038;-75
2023/10/05 01:58:31;;;;;;;13.23;5.47;;;;;;;;;;2072905;28;20416;-75
2023/10/05 01:59:52;;;;;;;12.13;7.15;;;;;;;;;;2074121;28;20069;-74
2023/10/05 02:01:13;;;;;;;14.68;6.30;;;;;;;;;;2073754;28;20463;-74
2023/10/05 02:02:34;;;;;;;13.43;6.22;;;;;;;;;;2077449;28;20124;-75
2023/10/05 02:03:57;;;;;;;13.50;6.28;;;;;;;;;;2083164;28;20162;-72
2023/10/05 02:05:20;;;;;;;18.80;6.75;;;;;;;;;;2082142;28;20036;-75
2023/10/05 02:06:42;;;;;;;12.55;7.25;;;;;;;;;;2072539;28;20096;-75
2023/10/05 02:08:04;;;;;;;11.32;6.78;;;;;;;;;;2076743;28;20037;-73
2023/10/05 02:09:25;;;;;;;14.25;5.95;;;;;;;;;;2084254;28;20048;-74
2023/10/05 02:10:47;;;;;;;14.25;6.28;;;;;;;;;;2074882;28;20030;-74
2023/10/05 02:12:09;;;;;;;12.10;6.40;;;;;;;;;;2080262;28;20500;-73
2023/10/05 02:13:32;;;;;;;13.88;6.65;;;;;;;;;;2085773;28;20025;-74
2023/10/05 02:14:54;;;;;;;9.02;6.72;;;;;;;;;;2085535;28;20393;-73
2023/10/05 02:16:20;;;;;;;12.18;7.38;;;;;;;;;;2091538;28;20041;-74
2023/10/05 02:17:45;;;;;;;16.40;6.80;;;;;;;;;;2083732;28;20112;-74
2023/10/05 02:19:08;;;;;;;13.00;6.40;;;;;;;;;;2084710;28;20067;-74
2023/10/05 02:21:54;;;;;;;11.02;5.97;;;;;;;;;;2081892;28;20088;-72
2023/10/05 02:23:25;;;;;;;14.85;7.32;;;;;;;;;;2083179;28;20045;-74
2023/10/05 02:24:46;;;;;;;11.63;6.72;;;;;;;;;;2081464;28;20095;-75
2023/10/05 02:26:23;;;;;;;15.07;7.45;;;;;;;;;;2082423;28;20036;-72
2023/10/05 02:27:46;;;;;;;13.75;7.43;;;;;;;;;;2080772;28;20098;-73
2023/10/05 02:29:13;;;;;;;19.30;8.30;;;;;;;;;;2082494;28;20450;-75
2023/10/05 02:30:36;;;;;;;14.57;7.10;;;;;;;;;;2086699;28;20033;-74
2023/10/05 02:33:26;;;;;;;12.27;7.68;;;;;;;;;;2081307;28;20088;-75
2023/10/05 02:34:59;;;;;;;14.25;6.53;;;;;;;;;;2083767;28;20037;-75
2023/10/05 02:36:20;;;;;;;12.50;6.85;;;;;;;;;;2081900;28;20496;-75
2023/10/05 02:37:41;;;;;;;14.60;7.18;;;;;;;;;;2083524;28;20033;-76
2023/10/05 02:39:02;;;;;;;10.25;6.60;;;;;;;;;;2085535;28;20115;-75
2023/10/05 02:40:36;;;;;;;17.55;7.05;;;;;;;;;;2081598;28;20107;-75
2023/10/05 02:41:57;;;;;;;14.75;7.40;;;;;;;;;;2080773;28;20465;-74
2023/10/05 02:43:18;;;;;;;15.38;6.47;;;;;;;;;;2083004;28;20345;-75
2023/10/05 02:44:43;;;;;;;13.60;6.30;;;;;;;;;;2072100;28;20100;-75
2023/10/05 02:46:09;;;;;;;15.20;6.50;;;;;;;;;;2083727;28;20113;-74
2023/10/05 02:47:31;;;;;;;16.35;6.85;;;;;;;;;;2076840;28;20034;-75
2023/10/05 02:48:51;;;;;;;15.88;6.95;;;;;;;;;;2076171;28;20164;-75
2023/10/05 02:50:13;;;;;;;16.55;7.63;;;;;;;;;;2076043;28;20040;-76
2023/10/05 02:51:35;;;;;;;9.05;5.45;;;;;;;;;;2070505;28;20099;-77
2023/10/05 02:52:59;;;;;;;13.30;6.82;;;;;;;;;;2078002;28;20030;-76
2023/10/05 02:54:22;;;;;;;10.95;6.22;;;;;;;;;;2076813;28;20525;-74
2023/10/05 02:55:43;;;;;;;17.42;7.18;;;;;;;;;;2070577;28;20555;-75
2023/10/05 02:57:07;;;;;;;17.27;6.63;;;;;;;;;;2073522;28;20030;-74
2023/10/05 02:58:29;;;;;;;9.68;5.60;;;;;;;;;;2078943;28;20501;-75
2023/10/05 02:59:50;;;;;;;10.75;6.43;;;;;;;;;;2075353;28;20176;-76
2023/10/05 03:01:13;;;;;;;12.75;6.57;;;;;;;;;;2062792;28;20038;-75
2023/10/05 03:02:44;;;;;;;14.32;5.60;;;;;;;;;;2072352;28;20022;-75
2023/10/05 03:04:16;;;;;;;12.95;6.93;;;;;;;;;;2080403;28;20072;-75
2023/10/05 03:05:39;;;;;;;15.40;6.90;;;;;;;;;;2075223;28;20039;-76
2023/10/05 03:06:59;;;;;;;11.52;5.72;;;;;;;;;;2076484;28;20026;-75
2023/10/05 03:08:22;;;;;;;13.05;6.18;;;;;;;;;;2083575;28;20036;-75
2023/10/05 03:09:44;;;;;;;12.38;6.72;;;;;;;;;;2083407;28;20030;-75
2023/10/05 03:11:08;;;;;;;13.32;7.63;;;;;;;;;;2079579;28;20025;-75
2023/10/05 03:12:29;;;;;;;13.88;5.82;;;;;;;;;;2073304;28;20477;-75
2023/10/05 03:13:50;;;;;;;17.50;5.97;;;;;;;;;;2087425;28;20112;-75
2023/10/05 03:15:12;;;;;;;12.63;6.40;;;;;;;;;;2085023;28;20029;-75
2023/10/05 03:16:43;;;;;;;;;;;;;;;;;;2090502;28;20029;-75
2023/10/05 03:18:06;;;;;;;11.43;6.70;;;;;;;;;;2081936;28;19909;-71
2023/10/05 03:19:27;;;;;;;13.65;6.90;;;;;;;;;;2088641;28;20111;-71
2023/10/05 03:20:47;;;;;;;10.02;5.68;;;;;;;;;;2094177;28;20036;-71
2023/10/05 03:22:12;;;;;;;18.08;7.82;;;;;;;;;;2083764;28;20026;-71
2023/10/05 03:23:33;;;;;;;13.25;6.40;;;;;;;;;;2089249;28;20044;-72
2023/10/05 03:24:53;;;;;;;18.25;6.38;;;;;;;;;;2096470;28;20490;-71
2023/10/05 03:26:16;;;;;;;11.73;6.38;;;;;;;;;;2079546;28;21383;-71
2023/10/05 03:27:37;;;;;;;;;;;;;;;;;;2081062;28;20037;-71
2023/10/05 03:28:58;;;;;;;8.18;5.80;;;;;;;;;;2091793;28;19916;-72
2023/10/05 03:30:23;;;;;;;14.27;7.32;;;;;;;;;;2087409;28;20481;-72
2023/10/05 03:31:54;;;;;;;21.08;7.35;;;;;;;;;;2083779;28;20034;-71
2023/10/05 03:33:17;;;;;;;11.57;6.43;;;;;;;;;;2072618;28;20042;-72
2023/10/05 03:34:38;;;;;;;13.60;7.28;;;;;;;;;;2077769;28;20075;-72
2023/10/05 03:36:00;;;;;;;18.58;8.00;;;;;;;;;;2073378;28;20482;-72
2023/10/05 03:37:22;;;;;;;12.52;6.90;;;;;;;;;;2083044;28;20036;-71
2023/10/05 03:38:43;;;;;;;15.18;6.95;;;;;;;;;;2084152;28;20073;-71
2023/10/05 03:41:26;;;;;;;20.77;7.10;;;;;;;;;;2081629;28;20032;-72
2023/10/05 03:42:48;;;;;;;12.32;6.80;;;;;;;;;;2081675;28;20025;-71
2023/10/05 03:44:15;;;;;;;;;;;;;;;;;;2082776;28;20651;-71
2023/10/05 03:45:38;;;;;;;18.65;7.05;;;;;;;;;;2090755;28;19916;-71
2023/10/05 03:47:00;;;;;;;16.10;6.75;;;;;;;;;;2083833;28;20079;-71
2023/10/05 03:48:22;;;;;;;17.77;6.53;;;;;;;;;;2081902;28;20443;-71
2023/10/05 03:49:54;;;;;;;13.20;6.90;;;;;;;;;;2091219;28;20326;-71
2023/10/05 03:51:15;;;;;;;13.55;6.78;;;;;;;;;;2080225;28;20451;-72
2023/10/05 03:52:37;;;;;;;13.93;7.70;;;;;;;;;;2081895;28;20038;-72
2023/10/05 03:53:57;;;;;;;15.00;7.57;;;;;;;;;;2070188;28;20060;-71
2023/10/05 03:55:19;;;;;;;14.07;7.28;;;;;;;;;;2083536;28;20606;-71
2023/10/05 03:56:42;;;;;;;10.23;5.70;;;;;;;;;;2081879;28;20101;-71
2023/10/05 03:58:03;;;;;;;13.38;7.30;;;;;;;;;;2078698;28;20041;-71
2023/10/05 03:59:23;;;;;;;11.98;6.15;;;;;;;;;;2074378;28;20037;-71
2023/10/05 04:00:49;;;;;;;10.50;7.03;;;;;;;;;;2081624;28;20481;-71
2023/10/05 04:02:10;;;;;;;12.60;7.25;;;;;;;;;;2089515;28;20036;-72
2023/10/05 04:03:31;;;;;;;13.50;6.95;;;;;;;;;;2085785;28;20075;-71
2023/10/05 04:04:52;;;;;;;17.27;7.60;;;;;;;;;;2085260;28;20147;-71
2023/10/05 04:06:18;;;;;;;12.77;6.53;;;;;;;;;;2083292;28;20090;-71
2023/10/05 04:07:39;;;;;;;18.42;7.47;;;;;;;;;;2069056;28;20370;-71
2023/10/05 04:09:00;;;;;;;18.83;7.37;;;;;;;;;;2082641;28;20067;-71
2023/10/05 04:10:23;;;;;;;13.07;7.05;;;;;;;;;;2086750;28;20430;-71
2023/10/05 04:11:44;;;;;;;11.23;5.80;;;;;;;;;;2080942;28;20083;-70
2023/10/05 04:13:05;;;;;;;14.60;6.80;;;;;;;;;;2083742;28;20488;-71
2023/10/05 04:14:26;;;;;;;12.48;6.40;;;;;;;;;;2089843;28;20470;-71
2023/10/05 04:15:47;;;;;;;11.05;6.40;;;;;;;;;;2079245;28;20029;-72
2023/10/05 04:17:11;;;;;;;10.43;6.55;;;;;;;;;;2079072;28;20033;-71
2023/10/05 04:18:32;;;;;;;12.32;6.38;;;;;;;;;;2081286;28;20045;-71
2023/10/05 04:19:53;;;;;;;16.35;7.40;;;;;;;;;;2086780;28;20098;-71
2023/10/05 04:21:15;;;;;;;14.73;8.13;;;;;;;;;;2087455;28;20029;-71
2023/10/05 04:22:38;;;;;;;11.32;6.72;;;;;;;;;;2082809;28;20025;-72
2023/10/05 04:23:59;;;;;;;17.63;8.25;;;;;;;;;;2081756;28;20037;-71
2023/10/05 04:25:20;;;;;;;12.43;6.93;;;;;;;;;;2084588;28;20032;-72
2023/10/05 04:26:45;;;;;;;12.50;6.97;;;;;;;;;;2084422;28;20029;-71
2023/10/05 04:28:06;;;;;;;10.93;7.28;;;;;;;;;;2082654;28;20400;-73
2023/10/05 04:29:26;;;;;;;15.90;7.57;;;;;;;;;;2083305;28;20037;-72
2023/10/05 04:30:49;;;;;;;14.93;6.90;;;;;;;;;;2085065;28;20029;-73
2023/10/05 04:32:15;;;;;;;15.05;7.53;;;;;;;;;;2074195;28;20551;-73
2023/10/05 04:33:36;;;;;;;18.88;7.45;;;;;;;;;;2085584;28;20037;-73
2023/10/05 04:34:58;;;;;;;12.63;6.28;;;;;;;;;;2085963;28;20094;-73
2023/10/05 04:36:22;;;;;;;14.32;7.88;;;;;;;;;;2072538;28;20056;-73
2023/10/05 04:37:43;;;;;;;12.48;6.25;;;;;;;;;;2083600;28;20072;-72
2023/10/05 04:39:05;;;;;;;13.30;7.13;;;;;;;;;;2070297;28;20030;-73
2023/10/05 04:40:26;;;;;;;;;;;;;;;;;;2079647;28;20026;-73
2023/10/05 04:41:50;;;;;;;15.07;7.05;;;;;;;;;;2082798;28;19905;-73
2023/10/05 04:43:11;;;;;;;16.83;8.02;;;;;;;;;;2079355;28;20029;-73
2023/10/05 04:44:34;;;;;;;14.25;7.18;;;;;;;;;;2074255;28;20056;-72
2023/10/05 04:45:55;;;;;;;;;;;;;;;;;;2087462;28;20029;-73
2023/10/05 04:47:17;;;;;;;11.65;6.65;;;;;;;;;;2083367;28;19909;-73
2023/10/05 04:48:38;;;;;;;11.20;7.32;;;;;;;;;;2083154;28;20530;-73
2023/10/05 04:49:59;;;;;;;12.77;6.15;;;;;;;;;;2085250;28;20391;-72
2023/10/05 04:51:21;;;;;;;14.50;6.75;;;;;;;;;;2079969;28;20026;-72
2023/10/05 04:52:45;;;;;;;13.30;6.97;;;;;;;;;;2083236;28;20021;-72
2023/10/05 04:54:07;;;;;;;14.05;8.52;;;;;;;;;;2070867;28;20131;-72
2023/10/05 04:55:41;;;;;;;14.90;6.63;;;;;;;;;;2083582;28;20441;-72
2023/10/05 04:57:12;;;;;;;16.40;7.55;;;;;;;;;;2081848;28;20038;-72
2023/10/05 04:58:53;;;;;;;16.42;6.90;;;;;;;;;;2087878;28;20040;-71
2023/10/05 05:03:34;;;;;;;14.20;6.57;;;;;;;;;;2079375;28;20416;-72
2023/10/05 05:05:21;;;;;;;8.10;5.85;;;;;;;;;;2078752;28;20068;-72
2023/10/05 05:06:36;;;;;;;17.13;6.40;;;;;;;;;;2080599;28;20051;-72
2023/10/05 05:07:57;;;;;;;16.42;7.05;;;;;;;;;;2081051;28;20420;-72
2023/10/05 05:09:18;;;;;;;13.70;6.60;;;;;;;;;;2081178;28;20179;-73
2023/10/05 05:10:39;;;;;;;16.27;6.78;;;;;;;;;;2078949;28;20038;-72
2023/10/05 05:12:04;;;;;;;17.48;6.50;;;;;;;;;;2080614;28;20497;-72
2023/10/05 05:13:27;;;;;;;13.25;6.65;;;;;;;;;;2079578;28;20607;-72
2023/10/05 05:14:54;;;;;;;16.13;7.22;;;;;;;;;;2080215;28;20049;-72
2023/10/05 05:16:15;;;;;;;12.40;6.93;;;;;;;;;;2081003;28;20500;-73
2023/10/05 05:17:39;;;;;;;15.55;7.53;;;;;;;;;;2078582;28;20048;-72
2023/10/05 05:19:00;;;;;;;14.07;7.10;;;;;;;;;;2081440;28;20033;-72
2023/10/05 05:20:21;;;;;;;21.88;8.85;;;;;;;;;;2087143;28;20020;-73
2023/10/05 05:21:42;;;;;;;15.70;7.63;;;;;;;;;;2080347;28;20029;-74
2023/10/05 05:23:04;;;;;;;15.18;7.13;;;;;;;;;;2079713;28;20781;-73
2023/10/05 05:24:28;;;;;;;17.40;7.13;;;;;;;;;;2079449;28;20574;-74
2023/10/05 05:25:51;;;;;;;14.40;8.15;;;;;;;;;;2077839;28;20036;-72
2023/10/05 05:28:38;;;;;;;14.85;7.57;;;;;;;;;;2084550;28;20064;-72
2023/10/05 05:29:59;;;;;;;16.75;7.05;;;;;;;;;;2084563;28;20098;-73
2023/10/05 05:31:21;;;;;;;14.85;7.03;;;;;;;;;;2081398;28;20484;-72
2023/10/05 05:32:44;;;;;;;16.98;8.05;;;;;;;;;;2073848;28;20091;-72
2023/10/05 05:34:06;;;;;;;16.45;7.70;;;;;;;;;;2078850;28;20025;-73
2023/10/05 05:35:28;;;;;;;14.23;8.07;;;;;;;;;;2076528;28;20082;-73
2023/10/05 05:36:52;;;;;;;17.95;7.45;;;;;;;;;;2079070;28;20037;-73
2023/10/05 05:38:13;;;;;;;13.45;6.50;;;;;;;;;;2081913;28;20025;-71
2023/10/05 05:39:39;;;;;;;18.35;7.78;;;;;;;;;;2079143;28;20053;-70
2023/10/05 05:41:01;;;;;;;15.93;7.25;;;;;;;;;;2070464;28;20485;-70
2023/10/05 05:42:25;;;;;;;16.75;7.95;;;;;;;;;;2082581;28;20021;-70
2023/10/05 05:43:46;;;;;;;15.30;7.88;;;;;;;;;;2090098;28;20025;-70
2023/10/05 05:45:18;;;;;;;13.65;7.78;;;;;;;;;;2080854;28;20033;-70
2023/10/05 05:46:39;;;;;;;15.02;6.70;;;;;;;;;;2081949;28;20071;-72
2023/10/05 05:48:00;;;;;;;15.90;7.82;;;;;;;;;;2078044;28;20322;-71
2023/10/05 05:49:22;;;;;;;16.02;7.63;;;;;;;;;;2075073;28;20072;-70
2023/10/05 05:50:43;;;;;;;15.57;6.78;;;;;;;;;;2075004;28;20087;-70
2023/10/05 05:52:08;;;;;;;16.90;7.55;;;;;;;;;;2074272;28;20107;-70
2023/10/05 05:53:29;;;;;;;18.58;7.80;;;;;;;;;;2075261;28;20410;-70
2023/10/05 05:54:50;;;;;;;9.60;7.20;;;;;;;;;;2076347;28;20092;-70
2023/10/05 05:56:16;;;;;;;17.75;7.38;;;;;;;;;;2081279;28;20042;-71
2023/10/05 05:57:38;;;;;;;10.90;6.85;;;;;;;;;;2077605;28;20037;-72
2023/10/05 05:59:00;;;;;;;14.38;6.95;;;;;;;;;;2071060;28;20085;-70
2023/10/05 06:00:25;;;;;;;12.00;6.93;;;;;;;;;;2072171;28;20494;-69
2023/10/05 06:01:46;;;;;;;15.75;7.15;;;;;;;;;;2072483;28;20033;-68
2023/10/05 06:03:11;;;;;;;17.85;7.63;;;;;;;;;;2072297;28;20575;-70
2023/10/05 06:04:35;;;;;;;12.65;7.82;;;;;;;;;;2071376;28;20045;-70
2023/10/05 06:05:55;;;;;;;24.88;8.60;;;;;;;;;;2079298;28;20104;-70
2023/10/05 06:07:17;;;;;;;16.35;8.25;;;;;;;;;;2065315;28;20049;-70
2023/10/05 06:08:40;;;;;;;16.48;6.80;;;;;;;;;;2074975;28;20511;-70
2023/10/05 06:10:01;;;;;;;19.63;7.55;;;;;;;;;;2081135;28;20034;-70
2023/10/05 06:11:22;;;;;;;12.75;7.05;;;;;;;;;;2076938;28;20030;-70
2023/10/05 06:12:47;;;;;;;15.77;6.97;;;;;;;;;;2074283;28;20137;-70
2023/10/05 06:14:08;;;;;;;18.70;7.85;;;;;;;;;;2064633;28;20077;-70
2023/10/05 06:15:29;;;;;;;10.82;5.85;;;;;;;;;;2086608;28;20025;-69
2023/10/05 06:16:52;;;;;;;19.48;7.93;;;;;;;;;;2075948;28;20087;-70
2023/10/05 06:18:13;;;;;;;11.48;6.82;;;;;;;;;;2081924;28;20037;-70
2023/10/05 06:19:36;;;;;;;15.35;6.95;;;;;;;;;;2077786;28;20029;-72
2023/10/05 06:20:56;;;;;;;;;;;;;;;;;;2076929;28;20087;-69
2023/10/05 06:22:17;;;;;;;12.40;6.78;;;;;;;;;;2079333;28;20418;-69
2023/10/05 06:23:38;;;;;;;13.65;6.65;;;;;;;;;;2077350;28;20049;-71
2023/10/05 06:24:59;;;;;;;15.18;7.20;;;;;;;;;;2080687;28;20037;-70
2023/10/05 06:26:21;;;;;;;15.07;7.82;;;;;;;;;;2075518;28;20026;-70
2023/10/05 06:27:45;;;;;;;12.80;6.88;;;;;;;;;;2079886;28;20033;-70
2023/10/05 06:29:08;;;;;;;18.70;7.43;;;;;;;;;;2070695;28;20030;-70
2023/10/05 06:30:29;;;;;;;14.90;6.55;;;;;;;;;;2077543;28;20433;-70
2023/10/05 06:31:50;;;;;;;17.17;6.90;;;;;;;;;;2075159;28;20046;-70
2023/10/05 06:33:11;;;;;;;11.32;7.00;;;;;;;;;;2074213;28;20037;-70
2023/10/05 06:34:32;;;;;;;11.43;7.38;;;;;;;;;;2072316;28;20532;-70
2023/10/05 06:35:54;;;;;;;14.82;7.30;;;;;;;;;;2073110;28;20030;-71
2023/10/05 06:37:15;;;;;;;12.70;6.90;;;;;;;;;;2076025;28;20038;-70
2023/10/05 06:38:36;;;;;;;19.02;7.15;;;;;;;;;;2073106;28;20401;-70
2023/10/05 06:39:57;;;;;;;20.35;7.32;;;;;;;;;;2081019;28;20042;-70
2023/10/05 06:41:18;;;;;;;18.08;7.50;;;;;;;;;;2075029;28;20057;-71
2023/10/05 06:42:41;;;;;;;14.65;6.53;;;;;;;;;;2086139;28;20561;-70
2023/10/05 06:44:02;;;;;;;;;;;;;;;;;;2084410;28;20030;-71
2023/10/05 06:45:23;;;;;;;16.75;8.13;;;;;;;;;;2075127;28;20352;-71
2023/10/05 06:46:44;;;;;;;12.32;6.65;;;;;;;;;;2079498;28;20441;-71
2023/10/05 06:48:06;;;;;;;10.77;6.70;;;;;;;;;;2076850;28;20112;-76
2023/10/05 06:49:27;;;;;;;16.83;7.50;;;;;;;;;;2065701;28;20401;-77
2023/10/05 06:50:48;;;;;;;13.07;6.78;;;;;;;;;;2077049;28;20030;-74
2023/10/05 06:52:08;;;;;;;12.70;6.28;;;;;;;;;;2076731;28;20038;-75
2023/10/05 06:53:29;;;;;;;12.75;7.35;;;;;;;;;;2073300;28;20416;-74
2023/10/05 06:54:50;;;;;;;12.93;6.93;;;;;;;;;;2072249;28;20180;-74
2023/10/05 06:56:11;;;;;;;15.48;7.60;;;;;;;;;;2072980;28;20843;-75
2023/10/05 06:57:32;;;;;;;13.15;7.22;;;;;;;;;;2071123;28;20042;-74
2023/10/05 06:58:54;;;;;;;14.35;6.97;;;;;;;;;;2073502;28;20057;-75
2023/10/05 07:00:21;;;;;;;15.40;7.45;;;;;;;;;;2076882;28;20565;-74
2023/10/05 07:01:42;;;;;;;16.05;7.35;;;;;;;;;;2073959;28;20034;-74
2023/10/05 07:03:06;;;;;;;16.33;7.15;;;;;;;;;;2064090;28;20030;-74
2023/10/05 07:04:27;;;;;;;12.98;7.35;;;;;;;;;;2073492;28;20026;-75
2023/10/05 07:05:48;;;;;;;15.60;7.13;;;;;;;;;;2080575;28;20029;-74
2023/10/05 07:07:09;;;;;;;16.38;8.15;;;;;;;;;;2079498;28;20037;-74
2023/10/05 07:08:30;;;;;;;17.10;7.90;;;;;;;;;;2082361;28;20083;-74
2023/10/05 07:09:51;;;;;;;19.48;9.60;;;;;;;;;;2074497;28;20041;-73
2023/10/05 07:11:12;;;;;;;15.43;7.63;;;;;;;;;;2075673;28;20505;-73
2023/10/05 07:12:41;;;;;;;17.25;7.32;;;;;;;;;;2086778;28;20120;-75
2023/10/05 07:14:03;;;;;;;12.35;7.10;;;;;;;;;;2089910;28;20029;-77
2023/10/05 07:15:23;;;;;;;16.92;6.72;;;;;;;;;;2083061;28;20357;-76
2023/10/05 07:16:45;;;;;;;18.17;7.95;;;;;;;;;;2072481;28;20045;-75
2023/10/05 07:18:06;;;;;;;11.57;7.00;;;;;;;;;;2080520;28;20033;-76
2023/10/05 07:19:27;;;;;;;16.48;7.05;;;;;;;;;;2066238;28;20023;-76
2023/10/05 07:20:48;;;;;;;14.15;7.32;;;;;;;;;;2069679;28;20022;-76
2023/10/05 07:22:09;;;;;;;14.88;6.95;;;;;;;;;;2079985;28;20017;-76
2023/10/05 07:23:31;;;;;;;17.33;7.50;;;;;;;;;;2069933;28;20374;-76
2023/10/05 07:24:52;;;;;;;18.25;7.60;;;;;;;;;;2072456;28;20552;-75
2023/10/05 07:26:13;;;;;;;14.35;6.47;;;;;;;;;;2070528;28;20037;-75
2023/10/05 07:27:35;;;;;;;13.13;6.60;;;;;;;;;;2071902;28;20037;-75
2023/10/05 07:28:55;;;;;;;14.90;7.13;;;;;;;;;;2073012;28;20036;-74
2023/10/05 07:30:16;;;;;;;16.50;7.38;;;;;;;;;;2074109;28;20042;-74
2023/10/05 07:31:39;;;;;;;14.02;7.65;;;;;;;;;;2070885;28;20025;-75
2023/10/05 07:33:00;;;;;;;11.85;6.68;;;;;;;;;;2072595;28;20101;-74
2023/10/05 07:34:21;;;;;;;15.73;7.40;;;;;;;;;;2073225;28;20033;-74
2023/10/05 07:35:42;;;;;;;12.38;6.95;;;;;;;;;;2089556;28;20040;-74
2023/10/05 07:37:03;;;;;;;23.00;8.48;;;;;;;;;;2084217;28;20025;-74
2023/10/05 07:38:26;;;;;;;15.07;8.10;;;;;;;;;;2089261;28;20213;-75
2023/10/05 07:39:50;;;;;;;15.68;7.93;;;;;;;;;;2090940;28;20033;-74
2023/10/05 07:41:11;;;;;;;17.20;7.43;;;;;;;;;;2083608;28;20686;-74
2023/10/05 07:42:33;;;;;;;14.48;7.22;;;;;;;;;;2089156;28;20504;-75
2023/10/05 07:43:53;;;;;;;12.15;6.47;;;;;;;;;;2079255;28;20044;-75
2023/10/05 07:45:15;;;;;;;10.88;7.00;;;;;;;;;;2080377;28;20313;-74
2023/10/05 07:46:38;;;;;;;16.13;7.70;;;;;;;;;;2080911;28;20101;-75
2023/10/05 07:47:59;;;;;;;11.32;6.80;;;;;;;;;;2075804;28;20026;-74
2023/10/05 07:49:20;;;;;;;14.13;6.47;;;;;;;;;;2072987;28;20018;-75
2023/10/05 07:50:41;;;;;;;15.38;6.50;;;;;;;;;;2073165;28;20030;-76
2023/10/05 07:52:03;;;;;;;12.68;6.13;;;;;;;;;;2080914;28;20021;-75
2023/10/05 07:53:25;;;;;;;13.75;7.07;;;;;;;;;;2075833;28;20030;-76
2023/10/05 07:54:46;;;;;;;15.95;7.32;;;;;;;;;;2072971;28;20397;-75
2023/10/05 07:56:07;;;;;;;12.50;6.53;;;;;;;;;;2064147;28;20030;-75
2023/10/05 07:57:29;;;;;;;15.40;6.38;;;;;;;;;;2066726;28;20037;-74
2023/10/05 07:58:50;;;;;;;15.55;6.15;;;;;;;;;;2065454;28;20030;-73
2023/10/05 08:00:12;;;;;;;11.45;6.78;;;;;;;;;;2080178;28;20430;-71
2023/10/05 08:01:33;;;;;;;16.60;6.25;;;;;;;;;;2083041;28;20056;-70
2023/10/05 08:02:54;;;;;;;15.13;7.10;;;;;;;;;;2081667;28;20038;-70
2023/10/05 08:04:15;;;;;;;17.35;6.80;;;;;;;;;;2073798;28;20044;-71
2023/10/05 08:05:36;;;;;;;13.43;6.43;;;;;;;;;;2088885;28;20037;-70
2023/10/05 08:06:58;;;;;;;16.48;6.07;;;;;;;;;;2090442;28;20496;-70
2023/10/05 08:08:20;;;;;;;12.30;5.93;;;;;;;;;;2092143;28;20428;-70
2023/10/05 08:09:43;;;;;;;;;;;;;;;;;;2083778;28;20032;-70
2023/10/05 08:11:04;;;;;;;14.90;6.95;;;;;;;;;;2080932;28;19909;-70
2023/10/05 08:12:28;;;;;;;13.63;5.85;;;;;;;;;;2078322;28;20033;-71
2023/10/05 08:13:49;;;;;;;11.63;6.25;;;;;;;;;;2073183;28;20354;-71
2023/10/05 08:15:16;;;;;;;11.27;5.47;;;;;;;;;;2074412;28;20117;-71
2023/10/05 08:16:38;;;;;;;16.58;6.90;;;;;;;;;;2081369;28;20026;-70
2023/10/05 08:17:59;;;;;;;13.55;7.10;;;;;;;;;;2076074;28;20022;-71
2023/10/05 08:19:21;;;;;;;13.15;6.40;;;;;;;;;;2080947;28;20033;-71
2023/10/05 08:20:42;;;;;;;16.35;6.50;;;;;;;;;;2075990;28;20048;-70
2023/10/05 08:22:03;;;;;;;13.63;6.25;;;;;;;;;;2068181;28;20026;-70
2023/10/05 08:23:24;;;;;;;11.13;6.20;;;;;;;;;;2068206;28;20025;-70
2023/10/05 08:24:45;;;;;;;16.20;7.45;;;;;;;;;;2072394;28;20041;-71